Time;durP1;ratioP1;P1;durP2;ratioP2;P2;SDS_P1;SDS_P2;PMS_P1;PMS_P2;Temp;Humidity;BMP_temperature;BMP_pressure;BME280_temperature;BME280_humidity;BME280_pressure;Samples;Min_cycle;Max_cycle;Signal;HPM_P1;HPM_P2
2022/12/26 00:00:23;;;;;;;245.52;52.03;;;;;;;9.80;100.00;100681.13;4977584;28;20470;-78
2022/12/26 00:02:49;;;;;;;247.52;52.65;;;;;;;9.86;100.00;100691.59;4992275;28;20537;-80
2022/12/26 00:05:14;;;;;;;218.35;51.58;;;;;;;9.88;100.00;100678.66;4958055;28;20138;-80
2022/12/26 00:07:40;;;;;;;237.85;54.25;;;;;;;9.85;100.00;100687.13;4984322;28;20045;-81
2022/12/26 00:10:06;;;;;;;257.27;54.88;;;;;;;9.82;100.00;100690.97;4977806;28;20125;-80
2022/12/26 00:12:31;;;;;;;226.15;55.58;;;;;;;9.84;100.00;100691.72;4962090;28;20132;-80
2022/12/26 00:14:57;;;;;;;248.13;55.35;;;;;;;9.80;100.00;100670.19;4992863;28;20065;-80
2022/12/26 00:17:23;;;;;;;237.18;50.55;;;;;;;9.79;100.00;100665.72;4977262;28;20038;-80
2022/12/26 00:19:49;;;;;;;231.05;52.05;;;;;;;9.77;100.00;100671.31;4975761;28;20034;-80
2022/12/26 00:22:14;;;;;;;250.50;52.83;;;;;;;9.82;100.00;100681.88;4993195;28;20065;-80
2022/12/26 00:24:40;;;;;;;236.82;51.05;;;;;;;9.82;100.00;100681.88;4941792;28;20026;-80
2022/12/26 00:27:05;;;;;;;266.23;51.78;;;;;;;9.82;100.00;100681.88;4943981;28;20039;-80
2022/12/26 00:29:31;;;;;;;245.38;51.38;;;;;;;9.82;100.00;100699.19;4976854;28;20045;-80
2022/12/26 00:31:56;;;;;;;231.90;48.47;;;;;;;9.80;100.00;100703.88;4975340;28;20031;-80
2022/12/26 00:34:22;;;;;;;247.65;48.63;;;;;;;9.86;100.00;100705.28;4972631;28;20541;-80
2022/12/26 00:36:47;;;;;;;220.68;48.15;;;;;;;9.90;100.00;100709.50;4976645;28;20113;-80
2022/12/26 00:39:12;;;;;;;210.93;48.00;;;;;;;9.84;100.00;100712.69;4977521;28;20093;-80
2022/12/26 00:41:38;;;;;;;213.35;47.47;;;;;;;9.85;100.00;100709.84;4986672;28;20070;-80
2022/12/26 00:44:03;;;;;;;224.30;46.60;;;;;;;9.81;100.00;100715.72;4994967;28;20053;-80
2022/12/26 00:46:29;;;;;;;197.70;45.55;;;;;;;9.70;100.00;100706.47;4987866;28;20069;-80
2022/12/26 00:48:54;;;;;;;202.32;46.13;;;;;;;9.79;100.00;100729.50;4975256;28;20038;-78
2022/12/26 00:51:20;;;;;;;192.77;45.78;;;;;;;9.73;100.00;100728.09;4990877;28;20521;-78
2022/12/26 00:53:46;;;;;;;239.32;47.17;;;;;;;9.76;100.00;100721.53;4980619;28;20082;-80
2022/12/26 00:56:11;;;;;;;204.68;44.55;;;;;;;9.80;100.00;100741.28;4975840;28;20494;-80
2022/12/26 00:58:37;;;;;;;206.93;47.65;;;;;;;9.74;100.00;100709.84;4975752;28;20049;-80
2022/12/26 01:01:13;;;;;;;220.35;47.83;;;;;;;9.75;100.00;100723.38;4987595;28;20035;-79
2022/12/26 01:03:39;;;;;;;229.80;46.63;;;;;;;9.74;100.00;100724.38;4994813;28;20117;-80
2022/12/26 01:06:05;;;;;;;242.80;46.33;;;;;;;9.68;100.00;100730.31;4994210;28;20060;-80
2022/12/26 01:08:30;;;;;;;219.32;45.35;;;;;;;9.67;100.00;100730.44;4993781;28;20042;-79
2022/12/26 01:10:56;;;;;;;226.40;46.63;;;;;;;9.65;100.00;100727.81;4995410;28;20034;-80
2022/12/26 01:13:21;;;;;;;241.75;48.78;;;;;;;9.66;100.00;100728.72;4980539;28;20481;-79
2022/12/26 01:15:51;;;;;;;224.45;47.58;;;;;;;9.69;100.00;100734.81;4994124;28;20045;-80
2022/12/26 01:18:17;;;;;;;219.70;46.42;;;;;;;9.72;100.00;100750.09;4995093;28;20402;-80
2022/12/26 01:20:42;;;;;;;213.88;46.50;;;;;;;9.78;100.00;100762.44;4995129;28;20093;-80
2022/12/26 01:23:08;;;;;;;205.38;45.65;;;;;;;9.80;100.00;100764.03;4979819;28;20482;-80
2022/12/26 01:25:33;;;;;;;248.65;45.35;;;;;;;9.83;100.00;100774.75;4969128;28;20551;-80
2022/12/26 01:28:00;;;;;;;245.68;45.75;;;;;;;9.83;100.00;100760.19;4966874;28;20065;-80
2022/12/26 01:30:25;;;;;;;234.15;44.67;;;;;;;9.75;100.00;100767.13;4979337;28;20045;-80
2022/12/26 01:32:50;;;;;;;238.15;47.92;;;;;;;9.80;100.00;100757.69;4995172;28;20478;-81
2022/12/26 01:35:16;;;;;;;218.52;44.85;;;;;;;9.83;100.00;100752.00;4979739;28;20031;-78
2022/12/26 01:37:41;;;;;;;205.68;44.55;;;;;;;9.78;100.00;100749.63;4979335;28;20030;-79
2022/12/26 01:40:10;;;;;;;189.77;39.85;;;;;;;9.76;100.00;100743.41;4980808;28;20043;-78
2022/12/26 01:42:40;;;;;;;177.13;39.53;;;;;;;9.78;100.00;100754.22;4979753;28;20039;-79
2022/12/26 01:45:29;;;;;;;161.98;37.65;;;;;;;9.84;100.00;100746.41;4994253;28;20035;-78
2022/12/26 01:48:02;;;;;;;171.80;39.20;;;;;;;9.81;100.00;100740.31;4996849;28;20422;-79
2022/12/26 01:50:31;;;;;;;133.80;32.13;;;;;;;9.70;100.00;100742.00;4996287;28;20026;-79
2022/12/26 01:53:02;;;;;;;158.98;34.92;;;;;;;9.62;100.00;100735.38;4995314;28;20490;-79
2022/12/26 01:55:31;;;;;;;157.95;36.42;;;;;;;9.65;100.00;100754.28;4979512;28;20466;-79
2022/12/26 01:58:04;;;;;;;158.73;37.83;;;;;;;9.67;100.00;100755.91;4983438;28;20030;-79
2022/12/26 02:00:30;;;;;;;161.52;36.05;;;;;;;9.66;100.00;100756.91;4996106;28;20026;-79
2022/12/26 02:05:42;;;;;;;172.07;37.20;;;;;;;9.70;100.00;100761.13;4996986;28;20034;-79
2022/12/26 02:08:14;;;;;;;170.82;38.22;;;;;;;9.67;100.00;100765.97;4994340;28;20038;-80
2022/12/26 02:10:51;;;;;;;151.98;35.70;;;;;;;9.65;100.00;100763.34;4994170;28;20065;-79
2022/12/26 02:13:18;;;;;;;163.80;35.70;;;;;;;9.64;100.00;100767.09;4986642;28;20085;-80
2022/12/26 02:15:45;;;;;;;161.00;37.80;;;;;;;9.63;100.00;100757.16;4995512;28;20045;-79
2022/12/26 02:18:10;;;;;;;158.82;38.05;;;;;;;9.69;100.00;100766.72;5008193;28;20491;-79
2022/12/26 02:21:00;;;;;;;156.65;37.65;;;;;;;9.70;100.00;100765.75;4985232;28;20038;-78
2022/12/26 02:23:34;;;;;;;144.10;35.40;;;;;;;9.64;100.00;100769.84;4982775;28;20069;-79
2022/12/26 02:26:34;;;;;;;147.93;36.55;;;;;;;9.62;100.00;100769.06;4988852;28;20050;-79
2022/12/26 02:29:18;;;;;;;148.30;37.08;;;;;;;9.57;100.00;100768.53;4985608;28;20056;-78
2022/12/26 02:32:10;;;;;;;162.88;36.83;;;;;;;9.52;100.00;100770.75;4996067;28;20034;-79
2022/12/26 02:34:44;;;;;;;146.50;36.13;;;;;;;9.44;100.00;100774.06;4995195;28;20034;-79
2022/12/26 02:37:32;;;;;;;139.70;33.45;;;;;;;9.41;100.00;100785.22;4991532;28;20057;-79
2022/12/26 02:40:29;;;;;;;122.75;34.20;;;;;;;9.42;100.00;100767.84;4977182;28;20059;-79
2022/12/26 02:43:29;;;;;;;138.20;36.38;;;;;;;9.39;100.00;100768.06;4981225;28;20043;-79
2022/12/26 02:49:09;;;;;;;121.15;31.95;;;;;;;9.31;100.00;100768.69;4986123;28;20121;-79
2022/12/26 03:15:03;;;;;;;95.70;27.30;;;;;;;9.38;100.00;100785.47;4995411;28;20038;-78
2022/12/26 03:17:28;;;;;;;83.90;23.05;;;;;;;9.36;100.00;100792.91;4968759;28;20046;-79
2022/12/26 03:19:59;;;;;;;98.07;25.30;;;;;;;9.42;100.00;100794.31;4986584;28;20030;-78
2022/12/26 03:22:37;;;;;;;73.47;22.20;;;;;;;9.42;100.00;100780.66;4991741;28;20035;-78
2022/12/26 03:27:55;;;;;;;72.47;21.85;;;;;;;9.44;100.00;100789.59;4990273;28;20023;-79
2022/12/26 03:34:15;;;;;;;71.45;21.35;;;;;;;9.45;100.00;100785.88;4981084;28;20042;-79
2022/12/26 03:35:50;;;;;;;70.55;22.08;;;;;;;9.41;100.00;100765.22;4993065;28;20104;-79
2022/12/26 03:38:21;;;;;;;70.40;21.02;;;;;;;9.32;100.00;100770.41;4976628;28;20046;-79
2022/12/26 04:19:59;;;;;;;55.40;19.45;;;;;;;9.27;100.00;100810.00;4992812;28;20097;-79
2022/12/26 04:45:15;;;;;;;54.05;18.85;;;;;;;9.10;100.00;100808.50;4997186;28;20027;-79
2022/12/26 04:50:10;;;;;;;65.90;18.77;;;;;;;9.10;100.00;100803.03;4947473;28;20065;-79
2022/12/26 04:50:26;;;;;;;64.60;19.73;;;;;;;9.06;100.00;100798.81;4994223;28;20077;-79
2022/12/26 04:52:57;;;;;;;61.20;17.77;;;;;;;8.90;100.00;100786.25;4985129;28;20425;-79
2022/12/26 04:55:31;;;;;;;59.75;17.42;;;;;;;8.99;100.00;100795.66;4978473;28;20054;-80
2022/12/26 04:57:56;;;;;;;69.53;20.52;;;;;;;9.02;100.00;100799.03;4995856;28;20101;-79
2022/12/26 05:00:26;;;;;;;73.13;19.73;;;;;;;9.01;100.00;100797.28;4996123;28;20172;-79
2022/12/26 05:11:16;;;;;;;78.57;20.85;;;;;;;8.94;100.00;100795.13;4997801;28;20489;-79
2022/12/26 05:13:41;;;;;;;69.53;19.05;;;;;;;8.89;100.00;100800.06;4987595;28;20126;-79
2022/12/26 05:29:47;;;;;;;79.43;19.45;;;;;;;8.91;100.00;100792.63;4979116;28;20125;-79
2022/12/26 05:32:13;;;;;;;76.50;19.30;;;;;;;8.88;100.00;100799.16;4976737;28;20142;-79
2022/12/26 05:34:38;;;;;;;73.22;20.98;;;;;;;8.89;100.00;100806.38;4997216;28;20176;-79
2022/12/26 05:37:04;;;;;;;65.30;17.80;;;;;;;8.81;100.00;100789.69;4979301;28;20555;-79
2022/12/26 05:39:29;;;;;;;72.35;20.23;;;;;;;8.86;100.00;100800.28;4995493;28;20474;-79
2022/12/26 05:41:55;;;;;;;53.83;15.63;;;;;;;8.88;100.00;100792.84;4978544;28;20509;-79
2022/12/26 05:44:23;;;;;;;66.43;17.55;;;;;;;8.89;100.00;100791.88;4994060;28;20038;-79
2022/12/26 05:46:49;;;;;;;55.72;16.52;;;;;;;8.90;100.00;100797.19;4985109;28;20122;-79
2022/12/26 05:49:14;;;;;;;53.00;15.80;;;;;;;8.82;100.00;100788.69;4944307;28;20073;-80
2022/12/26 05:51:40;;;;;;;72.10;17.23;;;;;;;8.88;100.00;100779.19;4979478;28;20463;-79
2022/12/26 05:54:05;;;;;;;51.08;15.68;;;;;;;8.85;100.00;100773.94;4995160;28;20045;-79
2022/12/26 05:56:31;;;;;;;60.55;17.65;;;;;;;8.83;100.00;100765.88;4961652;28;20061;-79
2022/12/26 05:58:58;;;;;;;53.10;15.93;;;;;;;8.80;100.00;100763.34;4995298;28;20042;-79
2022/12/26 06:01:26;;;;;;;56.88;15.98;;;;;;;8.76;100.00;100770.91;4980197;28;20031;-79
2022/12/26 06:03:53;;;;;;;55.65;15.52;;;;;;;8.64;100.00;100775.41;4990294;28;20042;-79
2022/12/26 06:06:20;;;;;;;53.45;15.90;;;;;;;8.68;100.00;100784.22;4988807;28;20046;-79
2022/12/26 06:08:53;;;;;;;61.00;15.77;;;;;;;8.64;100.00;100780.88;4992865;28;20035;-79
2022/12/26 06:11:19;;;;;;;64.25;17.58;;;;;;;8.62;100.00;100787.41;4979383;28;20500;-79
2022/12/26 06:13:48;;;;;;;55.53;17.13;;;;;;;8.60;100.00;100792.09;4977797;28;20027;-79
2022/12/26 06:16:16;;;;;;;58.72;16.02;;;;;;;8.58;100.00;100788.63;4994934;28;20034;-79
2022/12/26 06:18:41;;;;;;;56.03;15.93;;;;;;;8.52;100.00;100784.47;4979378;28;20034;-79
2022/12/26 06:21:13;;;;;;;58.13;15.15;;;;;;;8.56;100.00;100806.94;4989773;28;20031;-79
2022/12/26 06:23:39;;;;;;;55.83;15.50;;;;;;;8.53;100.00;100809.91;4989853;28;20149;-80
2022/12/26 06:26:07;;;;;;;61.38;15.15;;;;;;;8.55;100.00;100811.53;4978861;28;20043;-79
2022/12/26 06:28:33;;;;;;;64.82;17.58;;;;;;;8.53;100.00;100816.25;4995329;28;20042;-79
2022/12/26 06:31:04;;;;;;;71.07;16.85;;;;;;;8.57;100.00;100809.56;4959907;28;20041;-79
2022/12/26 06:33:30;;;;;;;58.70;17.15;;;;;;;8.59;100.00;100814.91;4993602;28;20378;-79
2022/12/26 06:36:03;;;;;;;65.82;17.25;;;;;;;8.68;100.00;100827.91;4993838;28;20049;-80
2022/12/26 06:38:29;;;;;;;61.85;17.67;;;;;;;8.67;100.00;100833.47;4984893;28;20093;-79
2022/12/26 06:40:54;;;;;;;57.38;16.63;;;;;;;8.72;100.00;100828.56;4962298;28;20414;-78
2022/12/26 06:43:19;;;;;;;59.75;15.98;;;;;;;8.74;100.00;100843.84;4989483;28;20505;-78
2022/12/26 06:45:56;;;;;;;62.10;15.77;;;;;;;8.79;100.00;100841.66;5010080;28;20050;-79
2022/12/26 06:48:22;;;;;;;66.72;17.10;;;;;;;8.78;100.00;100837.16;4994743;28;20061;-79
2022/12/26 06:50:47;;;;;;;47.55;15.90;;;;;;;8.86;100.00;100858.47;4994640;28;20504;-79
2022/12/26 06:53:13;;;;;;;55.80;16.13;;;;;;;8.90;100.00;100857.25;4978482;28;20049;-79
2022/12/26 06:55:38;;;;;;;49.38;15.43;;;;;;;8.90;100.00;100850.94;4992896;28;20053;-79
2022/12/26 06:58:03;;;;;;;43.83;15.35;;;;;;;9.02;100.00;100845.44;4992868;28;20022;-79
2022/12/26 07:00:29;;;;;;;45.60;13.95;;;;;;;8.99;100.00;100844.81;4962040;28;20081;-80
2022/12/26 07:02:54;;;;;;;39.58;13.73;;;;;;;9.05;100.00;100847.09;4994579;28;20176;-80
2022/12/26 07:05:20;;;;;;;41.17;14.80;;;;;;;9.09;100.00;100851.34;4977174;28;20049;-80
2022/12/26 07:07:52;;;;;;;48.75;15.50;;;;;;;9.11;100.00;100838.44;4958912;28;20134;-80
2022/12/26 07:10:19;;;;;;;48.38;12.68;;;;;;;9.12;100.00;100852.97;4976803;28;20046;-79
2022/12/26 07:12:46;;;;;;;48.90;14.45;;;;;;;9.11;100.00;100848.50;4977379;28;20466;-80
2022/12/26 07:15:11;;;;;;;51.15;14.63;;;;;;;9.08;100.00;100865.97;4992597;28;20052;-80
2022/12/26 07:17:37;;;;;;;52.92;14.63;;;;;;;9.00;100.00;100852.88;4973747;28;20038;-80
2022/12/26 07:20:03;;;;;;;40.35;12.10;;;;;;;8.98;100.00;100849.38;4977347;28;20038;-80
2022/12/26 07:22:29;;;;;;;38.08;12.57;;;;;;;9.07;100.00;100857.88;5008369;28;20065;-79
2022/12/26 07:24:54;;;;;;;29.23;11.20;;;;;;;9.11;100.00;100843.91;4959501;28;20067;-80
2022/12/26 07:27:23;;;;;;;39.88;13.02;;;;;;;9.07;100.00;100855.16;4945052;28;20026;-79
2022/12/26 07:29:48;;;;;;;37.40;13.43;;;;;;;9.04;100.00;100860.88;4960141;28;20073;-80
2022/12/26 07:32:14;;;;;;;43.38;14.27;;;;;;;9.07;100.00;100861.50;4990740;28;20461;-79
2022/12/26 07:34:40;;;;;;;36.50;12.73;;;;;;;9.02;100.00;100858.25;4960052;28;20049;-79
2022/12/26 07:37:06;;;;;;;40.50;14.05;;;;;;;8.96;100.00;100858.69;4987042;28;20113;-79
2022/12/26 07:39:31;;;;;;;43.97;13.40;;;;;;;8.95;100.00;100859.66;4954445;28;20118;-80
2022/12/26 07:41:57;;;;;;;44.88;12.32;;;;;;;8.89;100.00;100860.97;4974365;28;20042;-79
2022/12/26 07:44:32;;;;;;;26.48;11.18;;;;;;;8.98;100.00;100857.56;4985397;28;20038;-79
2022/12/26 07:47:00;;;;;;;35.25;11.57;;;;;;;9.00;100.00;100849.25;4992428;28;20413;-81
2022/12/26 07:49:25;;;;;;;33.47;10.20;;;;;;;8.89;100.00;100849.19;4994385;28;20034;-79
2022/12/26 07:51:51;;;;;;;23.40;9.85;;;;;;;8.87;100.00;100853.88;4973827;28;20035;-80
2022/12/26 07:54:17;;;;;;;28.33;9.77;;;;;;;8.87;100.00;100856.59;4993701;28;20568;-79
2022/12/26 07:56:42;;;;;;;26.02;10.20;;;;;;;8.83;100.00;100851.34;4988226;28;20039;-80
2022/12/26 07:59:14;;;;;;;26.98;10.30;;;;;;;8.91;100.00;100861.75;4993686;28;20098;-80
2022/12/26 08:01:40;;;;;;;32.58;11.45;;;;;;;8.88;100.00;100863.81;4991299;28;20034;-80
2022/12/26 08:04:05;;;;;;;29.23;9.82;;;;;;;8.75;100.00;100847.44;4976440;28;20093;-81
2022/12/26 08:06:30;;;;;;;39.95;11.00;;;;;;;8.90;100.00;100870.91;4989193;28;20245;-80
2022/12/26 08:08:56;;;;;;;26.52;9.35;;;;;;;8.90;100.00;100865.44;4988474;28;20164;-80
2022/12/26 08:11:23;;;;;;;30.50;9.13;;;;;;;8.96;100.00;100873.19;4962065;28;20126;-79
2022/12/26 08:13:49;;;;;;;27.25;8.25;;;;;;;9.04;100.00;100875.38;4993144;28;20038;-79
2022/12/26 08:16:15;;;;;;;29.52;9.50;;;;;;;9.05;100.00;100881.72;4993170;28;20418;-80
2022/12/26 08:18:41;;;;;;;31.05;9.00;;;;;;;9.07;100.00;100890.66;4993598;28;20030;-78
2022/12/26 08:21:07;;;;;;;36.75;9.05;;;;;;;9.09;100.00;100875.06;4993732;28;20561;-80
2022/12/26 08:23:33;;;;;;;21.65;7.60;;;;;;;9.09;100.00;100877.78;4981316;28;20038;-80
2022/12/26 08:26:03;;;;;;;27.67;8.75;;;;;;;9.10;100.00;100879.50;4959530;28;20038;-80
2022/12/26 08:28:28;;;;;;;26.50;10.38;;;;;;;9.05;100.00;100884.44;4977524;28;20094;-80
2022/12/26 08:30:54;;;;;;;27.90;9.05;;;;;;;9.11;100.00;100892.19;4961618;28;20088;-80
2022/12/26 08:33:19;;;;;;;25.30;9.10;;;;;;;9.05;100.00;100885.34;4998213;28;20039;-79
2022/12/26 08:35:45;;;;;;;35.80;10.40;;;;;;;9.09;100.00;100886.84;4978591;28;20484;-79
2022/12/26 08:38:10;;;;;;;25.13;9.23;;;;;;;9.04;100.00;100869.91;4995372;28;20046;-80
2022/12/26 08:40:36;;;;;;;23.45;8.85;;;;;;;9.02;100.00;100877.38;4954390;28;20039;-81
2022/12/26 08:43:01;;;;;;;29.50;8.95;;;;;;;9.04;100.00;100879.97;4993841;28;20039;-80
2022/12/26 08:45:30;;;;;;;29.38;9.88;;;;;;;9.05;100.00;100879.88;5009994;28;20039;-81
2022/12/26 08:47:55;;;;;;;25.60;9.25;;;;;;;9.02;100.00;100886.41;4977580;28;20058;-81
2022/12/26 08:50:20;;;;;;;26.35;8.25;;;;;;;9.05;100.00;100885.34;4963973;28;20038;-80
2022/12/26 08:52:46;;;;;;;23.80;7.88;;;;;;;9.04;100.00;100890.91;4971687;28;20129;-81
2022/12/26 08:55:12;;;;;;;29.65;8.23;;;;;;;9.09;100.00;100892.31;4956455;28;20125;-79
2022/12/26 08:57:37;;;;;;;13.10;6.10;;;;;;;9.11;100.00;100904.00;4976862;28;20034;-81
2022/12/26 09:00:04;;;;;;;17.25;7.28;;;;;;;9.18;100.00;100910.78;4979577;28;20051;-82
2022/12/26 09:02:29;;;;;;;14.70;6.78;;;;;;;9.23;100.00;100901.34;4982013;28;20050;-81
2022/12/26 09:04:54;;;;;;;35.28;7.18;;;;;;;9.28;100.00;100915.53;4978976;28;20073;-81
2022/12/26 09:07:20;;;;;;;16.90;4.70;;;;;;;9.43;100.00;100902.63;4966486;28;20039;-82
2022/12/26 09:09:47;;;;;;;14.88;5.45;;;;;;;9.42;100.00;100914.56;4981884;28;20675;-82
2022/12/26 09:12:12;;;;;;;18.60;6.03;;;;;;;9.43;100.00;100919.91;4996405;28;20041;-81
2022/12/26 09:14:38;;;;;;;15.88;5.57;;;;;;;9.50;100.00;100921.19;4971537;28;20027;-82
2022/12/26 09:17:03;;;;;;;24.95;5.88;;;;;;;9.55;100.00;100907.19;4979564;28;20042;-81
2022/12/26 09:19:31;;;;;;;36.78;5.97;;;;;;;9.65;100.00;100913.72;4965096;28;20027;-81
2022/12/26 09:24:41;;;;;;;16.17;4.25;;;;;;;9.70;100.00;100927.91;4980091;28;20046;-81
2022/12/26 09:27:07;;;;;;;11.90;3.80;;;;;;;9.72;100.00;100922.31;4999594;28;20434;-82
2022/12/26 09:29:32;;;;;;;14.23;3.83;;;;;;;9.82;100.00;100926.16;4980579;28;20042;-82
2022/12/26 09:31:58;;;;;;;27.90;4.47;;;;;;;9.82;100.00;100936.19;4981001;28;20065;-81
2022/12/26 09:34:23;;;;;;;36.22;5.43;;;;;;;9.86;100.00;100933.13;4979819;28;20046;-82
2022/12/26 09:36:48;;;;;;;13.90;3.28;;;;;;;9.88;100.00;100944.81;4978188;28;20030;-82
2022/12/26 09:39:14;;;;;;;8.02;3.53;;;;;;;9.87;100.00;100939.44;4979967;28;20102;-81
2022/12/26 09:42:10;;;;;;;16.30;3.50;;;;;;;9.92;100.00;100938.13;4976817;28;20430;-82
2022/12/26 09:44:47;;;;;;;14.25;2.95;;;;;;;9.85;100.00;100939.56;4995247;28;20117;-81
2022/12/26 09:47:20;;;;;;;13.25;3.65;;;;;;;9.90;100.00;100940.13;4978962;28;20038;-81
2022/12/26 09:50:10;;;;;;;12.88;3.28;;;;;;;9.94;100.00;100952.56;4995365;28;20490;-80
2022/12/26 09:52:49;;;;;;;18.63;3.28;;;;;;;9.84;100.00;100947.88;4997296;28;20030;-82
2022/12/26 09:55:45;;;;;;;8.95;2.65;;;;;;;9.89;100.00;100959.38;4990209;28;20073;-82
2022/12/26 09:58:40;;;;;;;17.08;3.35;;;;;;;9.86;100.00;100965.06;4994553;28;20097;-82
2022/12/26 10:01:13;;;;;;;9.23;3.45;;;;;;;9.96;100.00;100965.25;4977594;28;20514;-82
2022/12/26 10:03:45;;;;;;;21.27;3.13;;;;;;;9.93;100.00;100969.94;4997907;28;20062;-82
2022/12/26 10:06:17;;;;;;;17.10;2.83;;;;;;;9.95;100.00;100969.84;4997705;28;20441;-83
2022/12/26 10:08:52;;;;;;;9.38;2.60;;;;;;;9.96;100.00;100960.66;4978825;28;20039;-82
2022/12/26 10:11:33;;;;;;;12.77;2.88;;;;;;;9.93;100.00;100955.41;4994771;28;20087;-83
2022/12/26 10:14:07;;;;;;;13.75;3.08;;;;;;;10.00;100.00;100974.97;4992191;28;20709;-82
2022/12/26 10:16:35;;;;;;;24.83;3.63;;;;;;;9.98;100.00;100977.81;4989210;28;20410;-82
2022/12/26 10:19:03;;;;;;;10.32;2.30;;;;;;;10.07;100.00;100979.00;4991132;28;20053;-82
2022/12/26 10:21:28;;;;;;;8.65;1.98;;;;;;;10.07;100.00;100985.34;4988201;28;20053;-82
2022/12/26 10:24:01;;;;;;;15.15;2.20;;;;;;;10.07;100.00;100979.88;4979768;28;20030;-82
2022/12/26 10:26:35;;;;;;;25.83;2.13;;;;;;;10.07;100.00;100981.75;4975060;28;20078;-83
2022/12/26 10:29:14;;;;;;;15.35;2.08;;;;;;;10.09;100.00;100983.34;4996609;28;20031;-82
2022/12/26 10:31:46;;;;;;;17.98;3.10;;;;;;;9.98;100.00;100980.53;4977510;28;20040;-82
2022/12/26 10:34:15;;;;;;;10.38;2.35;;;;;;;9.99;100.00;100976.84;4991778;28;20030;-81
2022/12/26 10:36:45;;;;;;;13.65;2.25;;;;;;;10.03;100.00;100992.00;5004979;28;20058;-82
2022/12/26 10:39:17;;;;;;;11.50;1.98;;;;;;;10.02;100.00;100983.91;4991600;28;20031;-82
2022/12/26 10:41:48;;;;;;;15.38;2.53;;;;;;;10.07;100.00;100979.88;5009335;28;20034;-82
2022/12/26 10:44:15;;;;;;;13.43;1.85;;;;;;;10.04;100.00;100984.69;4996642;28;20046;-83
2022/12/26 10:46:55;;;;;;;22.35;2.92;;;;;;;9.97;100.00;100977.91;4995908;28;20049;-82
2022/12/26 10:49:23;;;;;;;13.60;2.47;;;;;;;10.03;100.00;100980.22;4995201;28;20113;-82
2022/12/26 10:51:50;;;;;;;13.63;2.17;;;;;;;10.01;100.00;100976.72;4996970;28;20456;-82
2022/12/26 10:54:17;;;;;;;10.68;2.30;;;;;;;10.04;100.00;100991.03;4972989;28;20038;-81
2022/12/26 10:56:49;;;;;;;14.70;2.47;;;;;;;10.05;100.00;100975.50;4975914;28;20089;-81
2022/12/26 10:59:19;;;;;;;14.65;2.53;;;;;;;10.11;100.00;100978.63;4968085;28;20058;-82
2022/12/26 11:01:48;;;;;;;18.15;2.42;;;;;;;10.01;100.00;100979.47;4995011;28;20034;-82
2022/12/26 11:04:23;;;;;;;12.73;2.92;;;;;;;10.10;100.00;100981.47;4990619;28;20038;-82
2022/12/26 11:06:53;;;;;;;14.10;2.90;;;;;;;10.04;100.00;100976.50;4995000;28;20030;-82
2022/12/26 11:09:39;;;;;;;7.70;2.28;;;;;;;10.15;100.00;100990.25;4979543;28;20050;-81
2022/12/26 11:12:17;;;;;;;14.63;2.80;;;;;;;10.26;100.00;100989.41;4977033;28;20026;-81
2022/12/26 11:14:44;;;;;;;13.23;2.88;;;;;;;10.16;100.00;101010.25;4994985;28;20049;-82
2022/12/26 11:17:31;;;;;;;13.07;2.00;;;;;;;9.61;100.00;101042.53;4972033;28;20510;-82
2022/12/26 11:20:15;;;;;;;17.80;2.15;;;;;;;9.00;100.00;101065.91;4983744;28;20066;-82
2022/12/26 11:22:45;;;;;;;13.23;1.95;;;;;;;8.86;100.00;101059.66;4994339;28;20046;-82
2022/12/26 11:25:23;;;;;;;17.17;2.22;;;;;;;8.76;100.00;101052.09;4996504;28;20062;-82
2022/12/26 11:27:54;;;;;;;20.67;3.35;;;;;;;8.79;100.00;101059.19;4978924;28;20034;-82
2022/12/26 11:30:28;;;;;;;14.77;2.60;;;;;;;8.84;100.00;101065.22;4994592;28;20032;-81
2022/12/26 11:33:11;;;;;;;10.90;3.08;;;;;;;8.84;100.00;101057.03;4988904;28;20060;-82
2022/12/26 11:35:44;;;;;;;8.05;1.55;;;;;;;8.79;100.00;101057.34;4993992;28;20081;-81
2022/12/26 11:38:33;;;;;;;18.80;2.20;;;;;;;8.88;100.00;101065.88;4997142;28;20121;-81
2022/12/26 11:44:09;;;;;;;15.88;1.85;;;;;;;8.94;100.00;101074.50;4918192;29;20036;-81
2022/12/26 11:46:46;;;;;;;15.50;2.15;;;;;;;8.74;100.00;101069.53;4920051;29;20523;-82
2022/12/26 11:49:30;;;;;;;17.40;3.20;;;;;;;8.68;100.00;101073.56;4962294;28;20051;-82
2022/12/26 11:51:57;;;;;;;19.63;2.67;;;;;;;8.66;100.00;101072.81;4994672;28;20061;-81
2022/12/26 11:54:30;;;;;;;12.60;2.28;;;;;;;8.69;100.00;101090.81;4986105;28;20081;-81
2022/12/26 11:56:59;;;;;;;;;;;;;;;8.84;100.00;101084.31;4969042;28;20023;-81
2022/12/26 11:59:25;;;;;;;19.58;2.60;;;;;;;8.85;100.00;101094.25;4993215;28;19920;-81
2022/12/26 12:02:13;;;;;;;22.50;2.65;;;;;;;8.73;100.00;101098.69;4994511;28;20120;-82
2022/12/26 12:04:39;;;;;;;17.10;3.10;;;;;;;8.64;100.00;101097.47;4991759;28;20048;-82
2022/12/26 12:07:20;;;;;;;27.40;3.67;;;;;;;8.65;100.00;101114.72;4986924;28;20039;-81
2022/12/26 12:09:57;;;;;;;23.50;3.47;;;;;;;8.59;100.00;101110.56;4974708;28;20049;-82
2022/12/26 12:13:02;;;;;;;28.60;5.38;;;;;;;8.66;100.00;101113.75;4991693;28;20055;-82
2022/12/26 12:15:35;;;;;;;11.20;2.60;;;;;;;8.56;100.00;101118.03;4993673;28;20505;-81
2022/12/26 12:18:17;;;;;;;20.08;3.75;;;;;;;8.48;100.00;101121.31;4977341;28;20496;-81
2022/12/26 12:20:55;;;;;;;30.30;3.88;;;;;;;8.43;100.00;101124.34;4987101;28;20030;-82
2022/12/26 12:23:59;;;;;;;29.77;4.32;;;;;;;8.40;100.00;101120.91;4991511;28;20405;-81
2022/12/26 12:26:29;;;;;;;31.42;4.50;;;;;;;8.37;100.00;101121.97;4955172;28;20057;-82
2022/12/26 12:29:25;;;;;;;23.92;4.30;;;;;;;8.45;100.00;101114.19;4995206;28;20045;-83
2022/12/26 12:31:59;;;;;;;20.58;3.90;;;;;;;8.34;100.00;101132.22;4987063;28;20509;-80
2022/12/26 12:34:57;;;;;;;26.00;4.07;;;;;;;8.25;100.00;101131.84;4990432;28;20042;-82
2022/12/26 12:37:56;;;;;;;22.05;3.60;;;;;;;8.13;100.00;101129.03;4994311;28;20490;-80
2022/12/26 12:40:52;;;;;;;31.45;3.83;;;;;;;8.05;100.00;101127.69;4987589;28;20501;-81
2022/12/26 12:43:34;;;;;;;21.02;3.30;;;;;;;7.90;100.00;101118.63;4991318;28;20474;-82
2022/12/26 12:46:21;;;;;;;20.02;3.50;;;;;;;7.91;100.00;101130.41;4989151;28;20118;-81
2022/12/26 12:49:02;;;;;;;13.70;3.25;;;;;;;7.97;100.00;101130.03;4993652;28;20038;-82
2022/12/26 12:51:37;;;;;;;16.80;2.47;;;;;;;7.90;100.00;101145.00;4975954;28;20043;-81
2022/12/26 12:54:24;;;;;;;20.50;3.38;;;;;;;7.84;100.00;101143.56;4982779;28;20057;-81
2022/12/26 12:57:11;;;;;;;21.30;3.80;;;;;;;7.93;100.00;101143.94;4977079;28;20037;-82
2022/12/26 12:59:48;;;;;;;20.75;3.10;;;;;;;7.77;100.00;101133.97;4970712;28;20167;-82
2022/12/26 13:02:42;;;;;;;30.83;4.13;;;;;;;7.83;100.00;101140.91;4991661;28;20106;-81
2022/12/26 13:05:27;;;;;;;26.08;3.72;;;;;;;7.93;100.00;101141.22;4994765;28;20034;-82
2022/12/26 13:08:03;;;;;;;19.48;3.33;;;;;;;7.84;100.00;101146.28;5008400;28;20081;-82
2022/12/26 13:10:37;;;;;;;26.05;3.75;;;;;;;7.71;100.00;101150.75;4997657;28;20068;-82
2022/12/26 13:13:31;;;;;;;32.47;5.40;;;;;;;7.80;100.00;101152.88;4995731;28;20034;-81
2022/12/26 13:16:04;;;;;;;33.38;4.70;;;;;;;7.88;100.00;101152.41;4989939;28;20081;-81
2022/12/26 13:18:34;;;;;;;12.77;3.30;;;;;;;7.84;100.00;101153.59;4997142;28;20034;-81
2022/12/26 13:21:08;;;;;;;22.00;4.45;;;;;;;7.84;100.00;101154.44;4995401;28;20030;-82
2022/12/26 13:26:40;;;;;;;20.83;3.65;;;;;;;7.84;100.00;101168.09;4996665;28;20030;-82
2022/12/26 13:29:31;;;;;;;19.17;2.92;;;;;;;7.72;100.00;101177.91;4994116;28;20044;-82
2022/12/26 13:32:01;;;;;;;16.83;2.88;;;;;;;7.67;100.00;101190.06;4977546;28;20050;-81
2022/12/26 13:34:30;;;;;;;29.02;3.22;;;;;;;7.63;100.00;101191.22;4977928;28;20038;-82
2022/12/26 13:36:57;;;;;;;17.13;2.63;;;;;;;7.53;100.00;101188.19;4967284;28;20057;-82